Terminal Aerodrome Forecast
Issued by NWS

Current Version | Previous Version | Graphics & Text | Print | Product List | Glossary On
Versions: 1 2 3 4 5 6 7 8 9 10 11 12 13 14 15 16 17 18 19
547
FTUS41 KPBZ 280524
TAFMGW
TAF
KMGW 280524Z 2806/2906 15004KT P6SM SKC
     FM281700 12009KT P6SM SCT120
     FM282100 12008KT P6SM BKN060
     FM282300 12007KT P6SM VCSH BKN070=

USA.gov is the U.S. government's official web portal to all federal, state and local government web resources and services.